Temp: 2.4°C   Baro: 999.7mb
  Wind: 4.0mph   Dir: NW (313°)
  Rain: 0.0mm (0.0mm/hr)
  Solar: 0W/m2  Hum: 83%
 
Bath Spa Weather Historical Data
Daily Summary for January 14, 2020 Units:  Metric    English   Both
Next Day »
Daily Weekly Monthly Yearly Custom
  High: Low: Average:
Temperature: 14.1 °C 7.3 °C 10.2 °C
Dew Point: 12.1 °C 4.1 °C 8.2 °C
Humidity: 95% 80% 88%
Wind Speed: 40.4km/h 0.0km/h 12.7km/h
Wind Gust: 54.7km/h - -
Wind direction- - SW
Pressure: 996.5 hPa 988.7 hPa -
Precipitation: 14.7 mm    
Historical Graphs
 
 
Tabular Data for January 14, 2020
Time Temperature Dew Point Pressure Wind direction Wind Speed Wind Gust Humidity Rainfall Rate (Hourly) solar
00:00 8.1 °C 5.9 °C 995.5 hPa WSW 11.1 km/h 19.3 km/h 86% 0.0 mm 0.00 W/m2
00:05 8.2 °C 6.0 °C 995.5 hPa SSW 14.3 km/h 16.1 km/h 86% 0.0 mm 0.00 W/m2
00:10 8.2 °C 6.0 °C 995.5 hPa WSW 11.1 km/h 19.3 km/h 86% 0.0 mm 0.00 W/m2
00:15 8.3 °C 6.1 °C 995.5 hPa WSW 16.3 km/h 20.9 km/h 86% 0.0 mm 0.00 W/m2
00:20 8.2 °C 5.8 °C 995.5 hPa WSW 7.9 km/h 22.5 km/h 85% 0.0 mm 0.00 W/m2
00:25 8.2 °C 5.8 °C 995.5 hPa SW 7.9 km/h 14.5 km/h 85% 0.0 mm 0.00 W/m2
00:30 8.1 °C 5.7 °C 995.5 hPa SSW 6.4 km/h 12.9 km/h 85% 0.0 mm 0.00 W/m2
00:35 8.1 °C 5.7 °C 995.5 hPa SW 4.7 km/h 22.5 km/h 85% 0.0 mm 0.00 W/m2
00:40 8.1 °C 5.7 °C 995.5 hPa West 4.7 km/h 14.5 km/h 85% 0.0 mm 0.00 W/m2
00:45 8.1 °C 5.7 °C 995.5 hPa SW 9.7 km/h 19.3 km/h 85% 0.0 mm 0.00 W/m2
00:50 8.1 °C 5.6 °C 995.5 hPa WSW 11.1 km/h 16.1 km/h 84% 0.0 mm 0.00 W/m2
00:55 8.1 °C 5.6 °C 995.5 hPa SW 16.3 km/h 17.7 km/h 84% 0.0 mm 0.00 W/m2
01:00 8.2 °C 5.5 °C 995.1 hPa SW 11.1 km/h 25.7 km/h 83% 0.0 mm 0.00 W/m2
01:05 8.2 °C 5.3 °C 995.1 hPa WSW 9.7 km/h 20.9 km/h 82% 0.0 mm 0.00 W/m2
01:10 8.2 °C 5.3 °C 995.1 hPa WSW 7.9 km/h 16.1 km/h 82% 0.0 mm 0.00 W/m2
01:15 8.2 °C 5.3 °C 995.1 hPa SW 13.0 km/h 20.9 km/h 82% 0.0 mm 0.00 W/m2
01:20 8.2 °C 5.3 °C 995.5 hPa WSW 6.4 km/h 14.5 km/h 82% 0.0 mm 0.00 W/m2
01:25 8.2 °C 5.3 °C 995.5 hPa WSW 9.7 km/h 14.5 km/h 82% 0.0 mm 0.00 W/m2
01:30 8.1 °C 5.2 °C 995.1 hPa WSW 9.7 km/h 16.1 km/h 82% 0.0 mm 0.00 W/m2
01:35 8.1 °C 5.2 °C 995.5 hPa SW 4.7 km/h 14.5 km/h 82% 0.0 mm 0.00 W/m2
01:40 8.1 °C 5.2 °C 995.5 hPa West 11.1 km/h 16.1 km/h 82% 0.0 mm 0.00 W/m2
01:45 8.1 °C 5.4 °C 995.5 hPa WSW 7.9 km/h 17.7 km/h 83% 0.0 mm 0.00 W/m2
01:50 8.1 °C 5.4 °C 995.5 hPa WNW 7.9 km/h 12.9 km/h 83% 0.0 mm 0.00 W/m2
01:55 8.2 °C 5.5 °C 995.5 hPa WSW 11.1 km/h 17.7 km/h 83% 0.0 mm 0.00 W/m2
02:00 8.2 °C 5.5 °C 995.5 hPa WSW 13.0 km/h 19.3 km/h 83% 0.0 mm 0.00 W/m2
02:05 8.2 °C 5.3 °C 995.8 hPa West 11.1 km/h 16.1 km/h 82% 0.0 mm 0.00 W/m2
02:10 8.1 °C 5.2 °C 995.5 hPa WSW 3.2 km/h 11.3 km/h 82% 0.0 mm 0.00 W/m2
02:15 8.0 °C 5.3 °C 995.5 hPa WSW 7.9 km/h 14.5 km/h 83% 0.0 mm 0.00 W/m2
02:20 7.9 °C 5.0 °C 995.8 hPa NW 9.7 km/h 9.7 km/h 82% 0.0 mm 0.00 W/m2
02:25 7.9 °C 5.0 °C 995.8 hPa West 11.1 km/h 11.3 km/h 82% 0.0 mm 0.00 W/m2
02:31 7.9 °C 5.0 °C 995.8 hPa SW 9.7 km/h 14.5 km/h 82% 0.0 mm 0.00 W/m2
02:35 7.8 °C 4.9 °C 995.8 hPa WSW 7.9 km/h 9.7 km/h 82% 0.0 mm 0.00 W/m2
02:40 7.8 °C 4.9 °C 995.5 hPa SW 4.7 km/h 9.7 km/h 82% 0.0 mm 0.00 W/m2
02:45 7.8 °C 4.9 °C 995.5 hPa SW 7.9 km/h 9.7 km/h 82% 0.0 mm 0.00 W/m2
02:50 7.9 °C 5.0 °C 995.8 hPa West 1.4 km/h 9.7 km/h 82% 0.0 mm 0.00 W/m2
02:55 7.8 °C 4.9 °C 995.5 hPa West 9.7 km/h 11.3 km/h 82% 0.0 mm 0.00 W/m2
03:00 7.8 °C 4.9 °C 995.5 hPa WSW 16.3 km/h 16.1 km/h 82% 0.0 mm 0.00 W/m2
03:05 7.8 °C 4.9 °C 995.8 hPa West 4.7 km/h 14.5 km/h 82% 0.0 mm 0.00 W/m2
03:10 7.9 °C 5.0 °C 995.8 hPa West 7.9 km/h 14.5 km/h 82% 0.0 mm 0.00 W/m2
03:15 7.9 °C 5.0 °C 995.8 hPa SW 4.7 km/h 16.1 km/h 82% 0.0 mm 0.00 W/m2
03:20 7.8 °C 4.7 °C 995.8 hPa West 13.0 km/h 14.5 km/h 81% 0.0 mm 0.00 W/m2
03:25 7.9 °C 4.8 °C 995.8 hPa West 7.9 km/h 19.3 km/h 81% 0.0 mm 0.00 W/m2
03:30 7.9 °C 4.8 °C 995.8 hPa WSW 9.7 km/h 14.5 km/h 81% 0.0 mm 0.00 W/m2
03:35 7.9 °C 4.7 °C 995.8 hPa SW 16.3 km/h 24.1 km/h 80% 0.0 mm 0.00 W/m2
03:40 7.9 °C 4.7 °C 995.8 hPa SW 6.4 km/h 11.3 km/h 80% 0.0 mm 0.00 W/m2
03:45 7.9 °C 4.7 °C 995.8 hPa WSW 11.1 km/h 20.9 km/h 80% 0.0 mm 0.00 W/m2
03:50 7.9 °C 4.7 °C 995.8 hPa West 9.7 km/h 11.3 km/h 80% 0.0 mm 0.00 W/m2
03:55 7.9 °C 4.8 °C 995.8 hPa WNW 7.9 km/h 20.9 km/h 81% 0.0 mm 0.00 W/m2
04:00 7.9 °C 4.7 °C 995.8 hPa WSW 9.7 km/h 14.5 km/h 80% 0.0 mm 0.00 W/m2
04:05 7.7 °C 4.6 °C 996.2 hPa WSW 11.1 km/h 12.9 km/h 81% 0.0 mm 0.00 W/m2
04:10 7.6 °C 4.5 °C 996.2 hPa West 4.7 km/h 9.7 km/h 81% 0.0 mm 0.00 W/m2
04:15 7.6 °C 4.5 °C 996.2 hPa WNW 13.0 km/h 16.1 km/h 81% 0.0 mm 0.00 W/m2
04:20 7.4 °C 4.4 °C 996.2 hPa WSW 6.4 km/h 11.3 km/h 81% 0.0 mm 0.00 W/m2
04:25 7.4 °C 4.4 °C 996.2 hPa WSW 4.7 km/h 14.5 km/h 81% 0.0 mm 0.00 W/m2
04:30 7.4 °C 4.5 °C 996.2 hPa West 3.2 km/h 12.9 km/h 82% 0.0 mm 0.00 W/m2
04:35 7.4 °C 4.4 °C 996.5 hPa WSW 11.1 km/h 14.5 km/h 81% 0.0 mm 0.00 W/m2
04:40 7.4 °C 4.4 °C 996.2 hPa WSW 7.9 km/h 11.3 km/h 81% 0.0 mm 0.00 W/m2
04:45 7.6 °C 4.5 °C 996.2 hPa WSW 14.3 km/h 17.7 km/h 81% 0.0 mm 0.00 W/m2
04:50 7.6 °C 4.4 °C 996.5 hPa SW 3.2 km/h 16.1 km/h 80% 0.0 mm 0.00 W/m2
04:55 7.6 °C 4.4 °C 996.5 hPa West 11.1 km/h 19.3 km/h 80% 0.0 mm 0.00 W/m2
05:01 7.5 °C 4.3 °C 996.5 hPa West 9.7 km/h 14.5 km/h 80% 0.0 mm 0.00 W/m2
05:05 7.5 °C 4.3 °C 996.5 hPa WSW 11.1 km/h 12.9 km/h 80% 0.0 mm 0.00 W/m2
05:10 7.5 °C 4.3 °C 996.2 hPa WSW 4.7 km/h 9.7 km/h 80% 0.0 mm 0.00 W/m2
05:15 7.4 °C 4.2 °C 996.2 hPa SW 3.2 km/h 4.8 km/h 80% 0.0 mm 0.00 W/m2
05:20 7.3 °C 4.1 °C 996.2 hPa SSW 4.7 km/h 6.4 km/h 80% 0.0 mm 0.00 W/m2
05:25 7.4 °C 4.2 °C 996.2 hPa SW 6.4 km/h 9.7 km/h 80% 0.0 mm 0.00 W/m2
05:30 7.5 °C 4.5 °C 996.2 hPa SSW 6.4 km/h 11.3 km/h 81% 0.0 mm 0.00 W/m2
05:35 7.4 °C 4.4 °C 996.2 hPa SW 7.9 km/h 9.7 km/h 81% 0.0 mm 0.00 W/m2
05:40 7.5 °C 4.5 °C 996.2 hPa WSW 4.7 km/h 4.8 km/h 81% 0.0 mm 0.00 W/m2
05:45 7.4 °C 4.4 °C 996.2 hPa SW 3.2 km/h 11.3 km/h 81% 0.0 mm 0.00 W/m2
05:50 7.4 °C 4.4 °C 996.2 hPa SW 7.9 km/h 8.0 km/h 81% 0.0 mm 0.00 W/m2
05:55 7.5 °C 4.5 °C 996.2 hPa SW 7.9 km/h 9.7 km/h 81% 0.0 mm 0.00 W/m2
06:00 7.6 °C 4.7 °C 996.2 hPa WSW 6.4 km/h 9.7 km/h 82% 0.0 mm 0.00 W/m2
06:05 7.6 °C 4.7 °C 996.5 hPa WSW 6.4 km/h 8.0 km/h 82% 0.0 mm 0.00 W/m2
06:10 7.7 °C 4.8 °C 996.5 hPa Calm   12.9 km/h 82% 0.0 mm 0.00 W/m2
06:15 7.7 °C 4.8 °C 996.5 hPa SSW 3.2 km/h 8.0 km/h 82% 0.0 mm 0.00 W/m2
06:20 7.7 °C 4.8 °C 996.5 hPa Calm   11.3 km/h 82% 0.0 mm 0.00 W/m2
06:25 7.7 °C 4.8 °C 996.5 hPa West 3.2 km/h 4.8 km/h 82% 0.0 mm 0.00 W/m2
06:31 7.8 °C 4.9 °C 996.2 hPa SW 3.2 km/h 11.3 km/h 82% 0.0 mm 0.00 W/m2
06:35 7.9 °C 5.0 °C 996.2 hPa SW 4.7 km/h 8.0 km/h 82% 0.0 mm 0.00 W/m2
06:40 8.0 °C 4.9 °C 996.2 hPa SSW 7.9 km/h 14.5 km/h 81% 0.0 mm 0.00 W/m2
06:45 8.1 °C 5.0 °C 996.2 hPa SW 9.7 km/h 14.5 km/h 81% 0.0 mm 0.00 W/m2
06:50 8.1 °C 4.9 °C 996.2 hPa SW 11.1 km/h 14.5 km/h 80% 0.0 mm 0.00 W/m2
06:55 8.0 °C 4.9 °C 996.2 hPa SSW 6.4 km/h 9.7 km/h 81% 0.0 mm 0.00 W/m2
07:00 8.0 °C 5.1 °C 995.8 hPa SSW 7.9 km/h 14.5 km/h 82% 0.0 mm 0.00 W/m2
07:05 8.1 °C 5.4 °C 995.8 hPa SSW 4.7 km/h 12.9 km/h 83% 0.0 mm 0.00 W/m2
07:10 8.0 °C 5.3 °C 996.2 hPa SSW 7.9 km/h 14.5 km/h 83% 0.0 mm 0.00 W/m2
07:15 8.1 °C 5.4 °C 996.2 hPa SW 11.1 km/h 11.3 km/h 83% 0.0 mm 0.00 W/m2
07:20 8.2 °C 5.5 °C 995.8 hPa WSW 7.9 km/h 16.1 km/h 83% 0.0 mm 0.00 W/m2
07:25 8.2 °C 5.5 °C 995.8 hPa South 7.9 km/h 16.1 km/h 83% 0.0 mm 0.00 W/m2
07:30 8.2 °C 5.5 °C 995.8 hPa South 9.7 km/h 17.7 km/h 83% 0.0 mm 0.00 W/m2
07:35 8.3 °C 5.6 °C 995.8 hPa WSW 17.7 km/h 24.1 km/h 83% 0.0 mm 0.00 W/m2
07:40 8.3 °C 5.6 °C 995.8 hPa SSE 6.4 km/h 20.9 km/h 83% 0.0 mm 0.00 W/m2
07:45 8.4 °C 5.7 °C 995.8 hPa SE 11.1 km/h 17.7 km/h 83% 0.0 mm 0.00 W/m2
07:50 8.4 °C 5.7 °C 996.2 hPa SW 9.7 km/h 16.1 km/h 83% 0.0 mm 0.00 W/m2
07:55 8.6 °C 5.9 °C 996.2 hPa South 13.0 km/h 22.5 km/h 83% 0.0 mm 0.00 W/m2
08:00 8.6 °C 6.0 °C 996.2 hPa SSW 4.7 km/h 11.3 km/h 84% 0.0 mm 0.00 W/m2
08:05 8.6 °C 6.0 °C 995.8 hPa WSW 6.4 km/h 19.3 km/h 84% 0.0 mm 0.00 W/m2
08:10 8.7 °C 6.1 °C 995.8 hPa SW 14.3 km/h 14.5 km/h 84% 0.0 mm 0.00 W/m2
08:15 8.7 °C 6.1 °C 995.8 hPa SSW 9.7 km/h 16.1 km/h 84% 0.0 mm 0.00 W/m2
08:20 8.9 °C 6.3 °C 995.8 hPa SSW 17.7 km/h 22.5 km/h 84% 0.0 mm 0.00 W/m2
08:25 8.9 °C 6.2 °C 995.8 hPa SSE 9.7 km/h 16.1 km/h 83% 0.0 mm 0.00 W/m2
08:30 9.0 °C 6.3 °C 995.8 hPa SSE 7.9 km/h 24.1 km/h 83% 0.0 mm 5.00 W/m2
08:35 9.1 °C 6.4 °C 995.5 hPa South 1.4 km/h 17.7 km/h 83% 0.0 mm 5.00 W/m2
08:40 9.1 °C 6.5 °C 995.5 hPa SSW 6.4 km/h 12.9 km/h 84% 0.0 mm 9.00 W/m2
08:45 9.1 °C 6.5 °C 995.5 hPa South 6.4 km/h 19.3 km/h 84% 0.0 mm 9.00 W/m2
08:50 9.0 °C 6.4 °C 995.5 hPa SSW 9.7 km/h 19.3 km/h 84% 0.0 mm 9.00 W/m2
08:55 9.1 °C 6.5 °C 995.5 hPa South 16.3 km/h 22.5 km/h 84% 0.0 mm 9.00 W/m2
09:01 9.2 °C 6.6 °C 995.1 hPa SSW 7.9 km/h 12.9 km/h 84% 0.0 mm 16.00 W/m2
09:05 9.2 °C 6.6 °C 995.1 hPa South 3.2 km/h 22.5 km/h 84% 0.0 mm 16.00 W/m2
09:10 9.2 °C 6.6 °C 995.1 hPa South 6.4 km/h 16.1 km/h 84% 0.0 mm 14.00 W/m2
09:15 9.3 °C 6.7 °C 995.1 hPa South 7.9 km/h 30.6 km/h 84% 0.0 mm 14.00 W/m2
09:20 9.4 °C 6.8 °C 994.8 hPa SSW 3.2 km/h 14.5 km/h 84% 0.0 mm 19.00 W/m2
09:25 9.6 °C 7.0 °C 994.8 hPa SSW 11.1 km/h 33.8 km/h 84% 0.0 mm 25.00 W/m2
09:30 9.6 °C 7.0 °C 994.5 hPa South 13.0 km/h 25.7 km/h 84% 0.0 mm 26.00 W/m2
09:35 9.6 °C 7.0 °C 994.1 hPa SSE 6.4 km/h 22.5 km/h 84% 0.0 mm 25.00 W/m2
09:40 9.6 °C 7.0 °C 994.1 hPa South 9.7 km/h 19.3 km/h 84% 0.0 mm 25.00 W/m2
09:45 9.6 °C 7.0 °C 994.5 hPa SSE 4.7 km/h 27.4 km/h 84% 0.0 mm 21.00 W/m2
09:50 9.6 °C 7.0 °C 994.1 hPa SSE 9.7 km/h 30.6 km/h 84% 0.0 mm 33.00 W/m2
09:55 9.7 °C 7.1 °C 994.1 hPa South 19.5 km/h 19.3 km/h 84% 0.0 mm 40.00 W/m2
10:00 9.7 °C 7.0 °C 994.1 hPa SSW 9.7 km/h 29.0 km/h 83% 0.0 mm 44.00 W/m2
10:05 9.8 °C 7.1 °C 993.8 hPa South 9.7 km/h 22.5 km/h 83% 0.0 mm 32.00 W/m2
10:10 9.8 °C 7.1 °C 993.5 hPa SSE 7.9 km/h 17.7 km/h 83% 0.0 mm 49.00 W/m2
10:15 9.8 °C 7.1 °C 993.5 hPa SSE 9.7 km/h 27.4 km/h 83% 0.0 mm 46.00 W/m2
10:20 9.7 °C 7.1 °C 993.5 hPa South 11.1 km/h 22.5 km/h 84% 0.0 mm 46.00 W/m2
10:25 9.7 °C 7.3 °C 993.1 hPa South 14.3 km/h 24.1 km/h 85% 0.0 mm 30.00 W/m2
10:30 9.6 °C 7.2 °C 992.8 hPa SE 27.4 km/h 27.4 km/h 85% 0.0 mm 28.00 W/m2
10:35 9.6 °C 7.4 °C 992.8 hPa SSW 14.3 km/h 20.9 km/h 86% 0.0 mm 39.00 W/m2
10:40 9.6 °C 7.4 °C 992.8 hPa South 22.7 km/h 22.5 km/h 86% 0.0 mm 26.00 W/m2
10:45 9.7 °C 7.6 °C 992.4 hPa South 11.1 km/h 27.4 km/h 87% 0.0 mm 39.00 W/m2
10:50 9.7 °C 7.8 °C 992.4 hPa SE 19.5 km/h 27.4 km/h 88% 0.0 mm 35.00 W/m2
10:55 9.7 °C 7.8 °C 992.4 hPa South 4.7 km/h 27.4 km/h 88% 0.0 mm 58.00 W/m2
11:00 9.8 °C 8.1 °C 992.4 hPa South 16.3 km/h 32.2 km/h 89% 0.0 mm 54.00 W/m2
11:05 9.8 °C 8.1 °C 992.1 hPa SSE 13.0 km/h 33.8 km/h 89% 0.0 mm 74.00 W/m2
11:10 9.9 °C 8.3 °C 991.8 hPa SSE 13.0 km/h 27.4 km/h 90% 0.0 mm 95.00 W/m2
11:15 10.1 °C 8.5 °C 991.8 hPa SSW 35.2 km/h 37.0 km/h 90% 0.0 mm 118.00 W/m2
11:20 10.2 °C 8.6 °C 991.8 hPa SSE 19.5 km/h 35.4 km/h 90% 0.3 mm 86.00 W/m2
11:25 10.2 °C 8.6 °C 991.8 hPa South 22.7 km/h 32.2 km/h 90% 0.3 mm 37.00 W/m2
11:30 10.2 °C 8.6 °C 991.4 hPa SSW 11.1 km/h 30.6 km/h 90% 0.3 mm 39.00 W/m2
11:35 10.2 °C 8.8 °C 991.4 hPa SSE 6.4 km/h 37.0 km/h 91% 0.3 mm 37.00 W/m2
11:40 10.2 °C 8.8 °C 991.1 hPa South 33.8 km/h 40.2 km/h 91% 0.3 mm 72.00 W/m2
11:45 10.2 °C 8.8 °C 990.7 hPa South 9.7 km/h 27.4 km/h 91% 0.3 mm 81.00 W/m2
11:50 10.2 °C 8.8 °C 990.7 hPa SW 3.2 km/h 33.8 km/h 91% 0.3 mm 67.00 W/m2
11:55 10.3 °C 8.9 °C 990.7 hPa WSW 11.1 km/h 22.5 km/h 91% 0.3 mm 60.00 W/m2
12:00 10.4 °C 9.2 °C 990.7 hPa SW 16.3 km/h 29.0 km/h 92% 0.3 mm 83.00 W/m2
12:05 10.5 °C 9.3 °C 990.4 hPa South 24.1 km/h 32.2 km/h 92% 0.3 mm 51.00 W/m2
12:10 10.9 °C 9.7 °C 990.7 hPa South 27.4 km/h 33.8 km/h 92% 0.3 mm 81.00 W/m2
12:15 11.0 °C 9.8 °C 990.1 hPa South 16.3 km/h 32.2 km/h 92% 0.3 mm 63.00 W/m2
12:20 11.2 °C 9.9 °C 989.7 hPa South 38.6 km/h 38.6 km/h 92% 0.0 mm 54.00 W/m2
12:25 11.4 °C 10.1 °C 989.7 hPa SSW 17.7 km/h 32.2 km/h 92% 0.0 mm 28.00 W/m2
12:30 11.6 °C 10.3 °C 989.7 hPa South 22.7 km/h 30.6 km/h 92% 0.0 mm 33.00 W/m2
12:35 11.9 °C 10.6 °C 989.7 hPa SSW 11.1 km/h 33.8 km/h 92% 0.0 mm 28.00 W/m2
12:40 12.1 °C 10.8 °C 989.4 hPa South 22.7 km/h 30.6 km/h 92% 0.0 mm 49.00 W/m2
12:45 12.3 °C 11.0 °C 989.4 hPa SSW 9.7 km/h 35.4 km/h 92% 0.3 mm 40.00 W/m2
12:50 12.6 °C 11.3 °C 989.4 hPa SSW 32.0 km/h 35.4 km/h 92% 0.3 mm 49.00 W/m2
12:55 12.7 °C 11.4 °C 989.4 hPa South 9.7 km/h 49.9 km/h 92% 0.3 mm 56.00 W/m2
13:00 12.7 °C 11.3 °C 989.4 hPa SSW 17.7 km/h 19.3 km/h 91% 0.3 mm 60.00 W/m2
13:05 12.9 °C 11.6 °C 989.4 hPa SSW 28.8 km/h 46.7 km/h 92% 0.3 mm 86.00 W/m2
13:10 13.1 °C 11.7 °C 989.1 hPa SW 30.6 km/h 46.7 km/h 91% 0.3 mm 83.00 W/m2
13:15 13.3 °C 11.9 °C 989.1 hPa SSW 40.4 km/h 41.8 km/h 91% 0.3 mm 84.00 W/m2
13:20 13.5 °C 11.9 °C 989.1 hPa WSW 27.4 km/h 53.1 km/h 90% 0.3 mm 46.00 W/m2
13:25 13.7 °C 12.1 °C 989.1 hPa SW 24.1 km/h 35.4 km/h 90% 0.3 mm 74.00 W/m2
13:30 13.7 °C 11.9 °C 989.1 hPa SSW 17.7 km/h 38.6 km/h 89% 0.3 mm 47.00 W/m2
13:35 13.8 °C 12.0 °C 989.1 hPa SW 20.9 km/h 35.4 km/h 89% 0.3 mm 39.00 W/m2
13:40 13.8 °C 12.0 °C 989.1 hPa WSW 27.4 km/h 46.7 km/h 89% 0.3 mm 40.00 W/m2
13:45 13.7 °C 11.9 °C 989.1 hPa SSW 14.3 km/h 29.0 km/h 89% 0.0 mm 39.00 W/m2
13:50 13.6 °C 11.8 °C 989.1 hPa SW 28.8 km/h 32.2 km/h 89% 0.0 mm 51.00 W/m2
13:55 13.7 °C 12.1 °C 989.1 hPa SSW 20.9 km/h 46.7 km/h 90% 0.0 mm 30.00 W/m2
14:00 13.7 °C 11.9 °C 988.7 hPa SSW 25.9 km/h 45.1 km/h 89% 0.0 mm 40.00 W/m2
14:05 13.8 °C 12.0 °C 989.1 hPa SSE 13.0 km/h 46.7 km/h 89% 0.0 mm 44.00 W/m2
14:10 13.9 °C 11.9 °C 989.1 hPa WSW 14.3 km/h 32.2 km/h 88% 0.0 mm 25.00 W/m2
14:15 13.8 °C 11.8 °C 989.1 hPa SW 33.8 km/h 45.1 km/h 88% 0.0 mm 23.00 W/m2
14:20 13.9 °C 11.9 °C 989.1 hPa SSW 13.0 km/h 35.4 km/h 88% 0.0 mm 18.00 W/m2
14:25 13.9 °C 11.9 °C 989.1 hPa WSW 14.3 km/h 32.2 km/h 88% 0.0 mm 28.00 W/m2
14:30 13.9 °C 11.9 °C 989.1 hPa SSW 14.3 km/h 38.6 km/h 88% 0.0 mm 25.00 W/m2
14:35 13.9 °C 11.9 °C 989.1 hPa WSW 27.4 km/h 40.2 km/h 88% 0.0 mm 21.00 W/m2
14:40 13.9 °C 11.9 °C 989.1 hPa SSW 22.7 km/h 32.2 km/h 88% 0.0 mm 26.00 W/m2
14:45 14.1 °C 12.1 °C 989.4 hPa SW 32.0 km/h 51.5 km/h 88% 0.0 mm 18.00 W/m2
14:50 14.1 °C 12.0 °C 989.1 hPa WSW 7.9 km/h 40.2 km/h 87% 0.0 mm 9.00 W/m2
14:55 14.0 °C 12.0 °C 989.1 hPa SW 37.0 km/h 54.7 km/h 88% 0.0 mm 12.00 W/m2
15:00 14.0 °C 12.0 °C 989.4 hPa WSW 25.9 km/h 32.2 km/h 88% 0.0 mm 16.00 W/m2
15:05 13.8 °C 11.8 °C 989.4 hPa SW 22.7 km/h 43.4 km/h 88% 0.0 mm 12.00 W/m2
15:10 13.7 °C 11.9 °C 989.4 hPa SW 24.1 km/h 38.6 km/h 89% 0.3 mm 16.00 W/m2
15:15 13.6 °C 11.8 °C 989.4 hPa SW 16.3 km/h 38.6 km/h 89% 0.3 mm 11.00 W/m2
15:20 13.4 °C 11.8 °C 989.4 hPa West 27.4 km/h 38.6 km/h 90% 0.5 mm 12.00 W/m2
15:26 13.3 °C 11.9 °C 989.4 hPa SW 25.9 km/h 40.2 km/h 91% 0.5 mm 11.00 W/m2
15:30 13.4 °C 12.0 °C 989.4 hPa WSW 17.7 km/h 49.9 km/h 91% 0.5 mm 7.00 W/m2
15:35 13.4 °C 12.0 °C 989.4 hPa South 11.1 km/h 43.4 km/h 91% 0.5 mm 9.00 W/m2
15:40 13.4 °C 12.0 °C 989.4 hPa SW 6.4 km/h 32.2 km/h 91% 0.5 mm 5.00 W/m2
15:45 13.4 °C 12.0 °C 989.4 hPa SW 20.9 km/h 41.8 km/h 91% 0.5 mm 0.00 W/m2
15:50 13.4 °C 12.0 °C 989.4 hPa WSW 25.9 km/h 35.4 km/h 91% 0.5 mm 5.00 W/m2
15:55 13.6 °C 12.0 °C 989.4 hPa South 16.3 km/h 49.9 km/h 90% 0.5 mm 0.00 W/m2
16:00 13.5 °C 11.9 °C 989.1 hPa South 14.3 km/h 35.4 km/h 90% 0.8 mm 5.00 W/m2
16:05 13.5 °C 11.9 °C 989.4 hPa SW 13.0 km/h 29.0 km/h 90% 0.8 mm 0.00 W/m2
16:10 13.5 °C 11.9 °C 989.4 hPa SW 14.3 km/h 41.8 km/h 90% 0.5 mm 0.00 W/m2
16:15 13.6 °C 11.8 °C 989.4 hPa SSW 11.1 km/h 22.5 km/h 89% 0.5 mm 0.00 W/m2
16:20 13.6 °C 11.8 °C 989.4 hPa SSE 13.0 km/h 48.3 km/h 89% 0.5 mm 0.00 W/m2
16:25 13.4 °C 11.6 °C 989.7 hPa SW 30.6 km/h 33.8 km/h 89% 0.5 mm 0.00 W/m2
16:30 13.3 °C 11.7 °C 989.7 hPa West 16.3 km/h 24.1 km/h 90% 0.5 mm 0.00 W/m2
16:35 13.2 °C 11.8 °C 989.7 hPa SW 14.3 km/h 29.0 km/h 91% 0.8 mm 0.00 W/m2
16:40 13.2 °C 11.8 °C 990.1 hPa SW 17.7 km/h 32.2 km/h 91% 0.8 mm 0.00 W/m2
16:45 13.1 °C 11.7 °C 989.7 hPa West 20.9 km/h 38.6 km/h 91% 1.3 mm 0.00 W/m2
16:50 13.1 °C 11.8 °C 989.7 hPa SSW 9.7 km/h 25.7 km/h 92% 1.5 mm 0.00 W/m2
16:55 13.1 °C 11.8 °C 989.7 hPa SW 30.6 km/h 41.8 km/h 92% 1.5 mm 0.00 W/m2
17:00 13.0 °C 11.7 °C 990.1 hPa WSW 20.9 km/h 41.8 km/h 92% 1.5 mm 0.00 W/m2
17:06 13.0 °C 11.7 °C 990.1 hPa SW 16.3 km/h 27.4 km/h 92% 1.8 mm 0.00 W/m2
17:10 13.0 °C 11.7 °C 990.4 hPa WSW 28.8 km/h 40.2 km/h 92% 2.0 mm 0.00 W/m2
17:15 12.9 °C 11.6 °C 990.1 hPa WSW 14.3 km/h 29.0 km/h 92% 2.3 mm 0.00 W/m2
17:20 12.9 °C 11.6 °C 990.1 hPa SSW 33.8 km/h 37.0 km/h 92% 2.3 mm 0.00 W/m2
17:25 13.0 °C 11.7 °C 989.7 hPa SW 24.1 km/h 37.0 km/h 92% 2.3 mm 0.00 W/m2
17:30 13.1 °C 11.8 °C 990.1 hPa WSW 25.9 km/h 35.4 km/h 92% 2.3 mm 0.00 W/m2
17:35 13.1 °C 11.7 °C 990.1 hPa SW 16.3 km/h 25.7 km/h 91% 2.0 mm 0.00 W/m2
17:40 13.1 °C 11.7 °C 990.4 hPa WSW 20.9 km/h 33.8 km/h 91% 1.8 mm 0.00 W/m2
17:45 13.1 °C 11.7 °C 990.4 hPa SW 16.3 km/h 22.5 km/h 91% 1.5 mm 0.00 W/m2
17:50 12.9 °C 11.5 °C 990.7 hPa West 27.4 km/h 37.0 km/h 91% 1.5 mm 0.00 W/m2
17:55 12.8 °C 11.5 °C 990.7 hPa West 7.9 km/h 17.7 km/h 92% 2.8 mm 0.00 W/m2
18:00 12.5 °C 11.2 °C 990.7 hPa West 19.5 km/h 22.5 km/h 92% 3.3 mm 0.00 W/m2
18:05 12.4 °C 11.1 °C 991.1 hPa WSW 22.7 km/h 22.5 km/h 92% 3.3 mm 0.00 W/m2
18:10 12.5 °C 11.2 °C 991.1 hPa WSW 20.9 km/h 24.1 km/h 92% 3.3 mm 0.00 W/m2
18:15 12.5 °C 11.2 °C 991.1 hPa West 16.3 km/h 16.1 km/h 92% 3.6 mm 0.00 W/m2
18:20 12.4 °C 11.1 °C 991.1 hPa WSW 13.0 km/h 19.3 km/h 92% 3.6 mm 0.00 W/m2
18:25 12.3 °C 11.2 °C 991.1 hPa SW 11.1 km/h 24.1 km/h 93% 3.6 mm 0.00 W/m2
18:30 12.2 °C 11.1 °C 991.1 hPa SW 22.7 km/h 37.0 km/h 93% 3.6 mm 0.00 W/m2
18:35 12.1 °C 11.0 °C 991.4 hPa SW 9.7 km/h 25.7 km/h 93% 3.6 mm 0.00 W/m2
18:40 12.0 °C 10.9 °C 991.4 hPa WSW 25.9 km/h 32.2 km/h 93% 3.8 mm 0.00 W/m2
18:45 11.9 °C 10.8 °C 991.8 hPa SSW 20.9 km/h 32.2 km/h 93% 4.1 mm 0.00 W/m2
18:50 11.8 °C 10.7 °C 991.8 hPa WSW 27.4 km/h 29.0 km/h 93% 3.8 mm 0.00 W/m2
18:55 11.7 °C 10.6 °C 991.4 hPa WSW 20.9 km/h 22.5 km/h 93% 2.8 mm 0.00 W/m2
19:00 11.7 °C 10.6 °C 991.8 hPa WSW 13.0 km/h 27.4 km/h 93% 2.0 mm 0.00 W/m2
19:05 11.7 °C 10.6 °C 991.8 hPa WSW 13.0 km/h 19.3 km/h 93% 1.5 mm 0.00 W/m2
19:10 11.7 °C 10.6 °C 992.1 hPa WSW 4.7 km/h 19.3 km/h 93% 1.5 mm 0.00 W/m2
19:15 11.7 °C 10.6 °C 991.8 hPa SW 14.3 km/h 20.9 km/h 93% 1.3 mm 0.00 W/m2
19:20 11.7 °C 10.6 °C 992.1 hPa SW 9.7 km/h 17.7 km/h 93% 1.0 mm 0.00 W/m2
19:25 11.7 °C 10.6 °C 992.4 hPa SW 7.9 km/h 22.5 km/h 93% 1.3 mm 0.00 W/m2
19:31 11.7 °C 10.4 °C 992.4 hPa WSW 7.9 km/h 17.7 km/h 92% 1.3 mm 0.00 W/m2
19:35 11.7 °C 10.4 °C 992.4 hPa SW 14.3 km/h 22.5 km/h 92% 1.3 mm 0.00 W/m2
19:40 11.7 °C 10.4 °C 992.4 hPa WSW 6.4 km/h 19.3 km/h 92% 1.3 mm 0.00 W/m2
19:45 11.7 °C 10.4 °C 992.4 hPa SE 6.4 km/h 20.9 km/h 92% 1.0 mm 0.00 W/m2
19:50 11.6 °C 10.3 °C 992.4 hPa South 4.7 km/h 20.9 km/h 92% 0.5 mm 0.00 W/m2
19:55 11.7 °C 10.4 °C 992.4 hPa SSW 14.3 km/h 20.9 km/h 92% 0.5 mm 0.00 W/m2
20:00 11.7 °C 10.4 °C 992.4 hPa WSW 14.3 km/h 14.5 km/h 92% 0.5 mm 0.00 W/m2
20:05 11.7 °C 10.4 °C 992.8 hPa SSW 19.5 km/h 19.3 km/h 92% 0.5 mm 0.00 W/m2
20:10 11.7 °C 10.4 °C 992.8 hPa South 7.9 km/h 19.3 km/h 92% 0.5 mm 0.00 W/m2
20:15 11.6 °C 10.3 °C 992.4 hPa SW 11.1 km/h 11.3 km/h 92% 0.5 mm 0.00 W/m2
20:20 11.6 °C 10.3 °C 992.4 hPa WSW 13.0 km/h 17.7 km/h 92% 0.5 mm 0.00 W/m2
20:25 11.6 °C 10.3 °C 992.8 hPa WSW 13.0 km/h 24.1 km/h 92% 0.5 mm 0.00 W/m2
20:30 11.6 °C 10.2 °C 992.8 hPa WSW 19.5 km/h 22.5 km/h 91% 0.5 mm 0.00 W/m2
20:35 11.6 °C 10.3 °C 992.8 hPa South 7.9 km/h 17.7 km/h 92% 0.5 mm 0.00 W/m2
20:40 11.6 °C 10.3 °C 992.8 hPa SSW 11.1 km/h 16.1 km/h 92% 0.5 mm 0.00 W/m2
20:45 11.6 °C 10.3 °C 993.1 hPa WSW 16.3 km/h 20.9 km/h 92% 0.5 mm 0.00 W/m2
20:50 11.5 °C 10.1 °C 993.1 hPa SW 13.0 km/h 19.3 km/h 91% 0.5 mm 0.00 W/m2
20:55 11.5 °C 10.1 °C 993.1 hPa SW 22.7 km/h 32.2 km/h 91% 0.5 mm 0.00 W/m2
21:00 11.5 °C 10.1 °C 993.5 hPa SW 6.4 km/h 20.9 km/h 91% 0.8 mm 0.00 W/m2
21:05 11.4 °C 10.0 °C 993.5 hPa SW 11.1 km/h 17.7 km/h 91% 0.8 mm 0.00 W/m2
21:10 11.4 °C 10.0 °C 993.5 hPa WSW 13.0 km/h 27.4 km/h 91% 1.0 mm 0.00 W/m2
21:15 11.3 °C 10.0 °C 993.5 hPa WSW 11.1 km/h 20.9 km/h 92% 0.8 mm 0.00 W/m2
21:20 11.3 °C 10.0 °C 993.5 hPa SW 7.9 km/h 19.3 km/h 92% 1.0 mm 0.00 W/m2
21:25 11.3 °C 10.0 °C 993.5 hPa West 11.1 km/h 11.3 km/h 92% 1.0 mm 0.00 W/m2
21:30 10.7 °C 9.5 °C 993.8 hPa WNW 11.1 km/h 12.9 km/h 92% 1.0 mm 0.00 W/m2
21:35 10.3 °C 9.1 °C 993.8 hPa NW 7.9 km/h 16.1 km/h 92% 1.8 mm 0.00 W/m2
21:40 10.1 °C 8.9 °C 993.8 hPa NW 6.4 km/h 16.1 km/h 92% 2.8 mm 0.00 W/m2
21:45 9.9 °C 8.8 °C 994.1 hPa NW 7.9 km/h 14.5 km/h 93% 3.0 mm 0.00 W/m2
21:50 9.9 °C 8.8 °C 994.1 hPa NW 7.9 km/h 12.9 km/h 93% 3.3 mm 0.00 W/m2
21:55 9.8 °C 8.7 °C 994.1 hPa West 11.1 km/h 12.9 km/h 93% 3.3 mm 0.00 W/m2
22:00 9.7 °C 8.6 °C 994.1 hPa WNW 3.2 km/h 11.3 km/h 93% 3.3 mm 0.00 W/m2
22:05 9.7 °C 8.8 °C 994.1 hPa WNW 11.1 km/h 12.9 km/h 94% 3.3 mm 0.00 W/m2
22:10 9.6 °C 8.7 °C 994.1 hPa NW 7.9 km/h 14.5 km/h 94% 3.3 mm 0.00 W/m2
22:15 9.5 °C 8.6 °C 994.1 hPa West 4.7 km/h 12.9 km/h 94% 3.3 mm 0.00 W/m2
22:20 9.3 °C 8.4 °C 994.1 hPa West 4.7 km/h 12.9 km/h 94% 3.3 mm 0.00 W/m2
22:25 9.2 °C 8.3 °C 994.1 hPa WNW 3.2 km/h 9.7 km/h 94% 3.6 mm 0.00 W/m2
22:30 9.1 °C 8.2 °C 994.1 hPa WNW 4.7 km/h 9.7 km/h 94% 3.6 mm 0.00 W/m2
22:35 8.9 °C 8.0 °C 994.1 hPa WNW 13.0 km/h 16.1 km/h 94% 2.5 mm 0.00 W/m2
22:40 8.9 °C 8.0 °C 994.1 hPa NW 11.1 km/h 12.9 km/h 94% 1.5 mm 0.00 W/m2
22:45 8.8 °C 7.9 °C 994.1 hPa NW 4.7 km/h 12.9 km/h 94% 1.5 mm 0.00 W/m2
22:50 8.8 °C 7.9 °C 994.1 hPa WNW 6.4 km/h 12.9 km/h 94% 1.5 mm 0.00 W/m2
22:55 8.7 °C 7.8 °C 994.5 hPa WNW 7.9 km/h 16.1 km/h 94% 1.3 mm 0.00 W/m2
23:00 8.7 °C 7.9 °C 994.5 hPa West 7.9 km/h 9.7 km/h 95% 1.5 mm 0.00 W/m2
23:05 8.6 °C 7.8 °C 994.5 hPa WNW 3.2 km/h 9.7 km/h 95% 1.3 mm 0.00 W/m2
23:10 8.6 °C 7.7 °C 994.5 hPa West 1.4 km/h 6.4 km/h 94% 1.3 mm 0.00 W/m2
23:15 8.6 °C 7.7 °C 994.5 hPa NW 4.7 km/h 8.0 km/h 94% 1.0 mm 0.00 W/m2
23:20 8.6 °C 7.8 °C 994.5 hPa WNW 3.2 km/h 8.0 km/h 95% 1.0 mm 0.00 W/m2
23:25 8.6 °C 7.8 °C 994.5 hPa WNW 4.7 km/h 4.8 km/h 95% 1.0 mm 0.00 W/m2
23:30 8.6 °C 7.8 °C 994.5 hPa West 3.2 km/h 8.0 km/h 95% 0.8 mm 0.00 W/m2
23:35 8.6 °C 7.8 °C 994.5 hPa WNW 4.7 km/h 6.4 km/h 95% 0.8 mm 0.00 W/m2
23:40 8.6 °C 7.8 °C 994.8 hPa NW 4.7 km/h 9.7 km/h 95% 1.0 mm 0.00 W/m2
23:45 8.4 °C 7.6 °C 994.8 hPa NW 9.7 km/h 19.3 km/h 95% 0.8 mm 0.00 W/m2
23:50 8.2 °C 7.4 °C 994.8 hPa NW 7.9 km/h 12.9 km/h 95% 0.8 mm 0.00 W/m2
23:55 8.0 °C 7.2 °C 995.1 hPa WNW 11.1 km/h 14.5 km/h 95% 1.0 mm 0.00 W/m2